createdAt,value
2023-02-22T06:29:34.105Z,100.00
2023-02-22T06:32:36.904Z,100.00
2023-02-22T06:35:39.383Z,100.00
2023-02-22T06:38:41.880Z,100.00
2023-02-22T06:41:45.017Z,100.00
2023-02-22T06:44:49.787Z,100.00
2023-02-22T06:47:53.963Z,100.00
2023-02-22T06:50:56.458Z,100.00
2023-02-22T06:53:59.105Z,100.00
2023-02-22T06:57:01.723Z,100.00
2023-02-22T07:00:06.300Z,100.00
2023-02-22T07:03:08.832Z,100.00
2023-02-22T07:06:11.451Z,100.00
2023-02-22T07:09:13.960Z,100.00
2023-02-22T07:12:16.468Z,100.00
2023-02-22T07:15:22.430Z,100.00
2023-02-22T07:18:25.076Z,100.00
2023-02-22T07:21:27.578Z,100.00
2023-02-22T07:24:30.074Z,100.00
2023-02-22T07:27:32.572Z,100.00
2023-02-22T07:30:36.433Z,100.00
2023-02-22T07:33:38.955Z,100.00
2023-02-22T07:36:41.423Z,100.00
2023-02-22T07:39:43.949Z,100.00
2023-02-22T07:42:54.385Z,100.00
2023-02-22T07:46:02.750Z,100.00
2023-02-22T07:49:05.328Z,100.00
2023-02-22T07:52:08.185Z,100.00
2023-02-22T07:55:10.674Z,100.00
2023-02-22T07:58:15.935Z,100.00
2023-02-22T08:01:19.946Z,100.00
2023-02-22T08:04:22.499Z,100.00
2023-02-22T08:07:25.041Z,100.00
2023-02-22T08:10:27.897Z,100.00
2023-02-22T08:13:30.559Z,100.00
2023-02-22T08:16:34.445Z,100.00
2023-02-22T08:19:36.946Z,100.00
2023-02-22T08:22:40.194Z,100.00
2023-02-22T08:25:43.297Z,100.00
2023-02-22T08:28:45.786Z,100.00
2023-02-22T08:31:54.179Z,100.00
2023-02-22T08:34:56.897Z,100.00
2023-02-22T08:38:02.245Z,100.00
2023-02-22T08:41:05.017Z,100.00
2023-02-22T08:44:07.490Z,100.00
2023-02-22T08:47:11.301Z,100.00
2023-02-22T08:50:18.324Z,100.00
2023-02-22T08:53:20.841Z,100.00
2023-02-22T08:56:24.246Z,100.00
2023-02-22T08:59:27.265Z,100.00
2023-02-22T09:02:31.072Z,100.00
2023-02-22T09:05:34.133Z,100.00
2023-02-22T09:08:36.595Z,100.00
2023-02-22T09:11:39.072Z,100.00
2023-02-22T09:14:42.938Z,100.00
2023-02-22T09:17:46.944Z,100.00
2023-02-22T09:20:49.468Z,100.00
2023-02-22T09:23:54.660Z,100.00
2023-02-22T09:26:59.242Z,100.00
2023-02-22T09:30:02.195Z,100.00
2023-02-22T09:33:10.038Z,100.00
2023-02-22T09:36:12.696Z,100.00
2023-02-22T09:39:16.098Z,100.00
2023-02-22T09:42:28.624Z,98.45
2023-02-22T09:45:36.930Z,94.06
2023-02-22T09:48:52.389Z,89.14
2023-02-22T09:52:02.608Z,83.12
2023-02-22T09:55:10.160Z,78.22
2023-02-22T09:58:21.837Z,77.63
2023-02-22T10:01:29.687Z,71.99
2023-02-22T10:04:41.393Z,71.74
2023-02-22T10:07:52.096Z,72.24
2023-02-22T10:11:03.212Z,79.66
2023-02-22T10:14:24.725Z,84.18
2023-02-22T10:17:34.273Z,82.86
2023-02-22T10:20:49.470Z,84.32
2023-02-22T10:24:02.169Z,83.93
2023-02-22T10:27:07.770Z,82.46
2023-02-22T10:30:24.882Z,82.13
2023-02-22T10:33:33.074Z,81.66
2023-02-22T10:36:39.125Z,81.18
2023-02-22T10:39:43.172Z,80.19
2023-02-22T10:42:45.856Z,79.79
2023-02-22T10:45:48.575Z,80.93
2023-02-22T10:48:54.907Z,80.56
2023-02-22T10:52:01.571Z,78.70
2023-02-22T10:55:15.264Z,78.20
2023-02-22T10:58:18.303Z,77.84
2023-02-22T11:01:28.561Z,78.36
2023-02-22T11:04:47.019Z,78.36
2023-02-22T11:07:50.936Z,78.08
2023-02-22T11:10:56.125Z,78.98
2023-02-22T11:13:59.652Z,80.12
2023-02-22T11:17:07.506Z,79.41
2023-02-22T11:20:25.247Z,80.18
2023-02-22T11:23:29.859Z,77.70
2023-02-22T11:26:40.684Z,76.43
2023-02-22T11:29:43.763Z,76.59
2023-02-22T11:32:49.128Z,75.88
2023-02-22T11:35:53.710Z,76.37
2023-02-22T11:39:00.693Z,75.78
2023-02-22T11:42:21.274Z,75.41
2023-02-22T11:45:24.944Z,74.36
2023-02-22T11:48:29.204Z,76.33
2023-02-22T11:51:45.085Z,76.42
2023-02-22T11:55:05.949Z,77.68
2023-02-22T11:58:26.530Z,78.75
2023-02-22T12:01:40.160Z,77.74
2023-02-22T12:05:18.471Z,77.03
2023-02-22T12:08:32.818Z,76.12
2023-02-22T12:11:46.247Z,76.55
2023-02-22T12:14:59.670Z,76.88
2023-02-22T12:18:11.843Z,76.76
2023-02-22T12:21:17.700Z,76.65
2023-02-22T12:24:23.571Z,78.62
2023-02-22T12:27:31.665Z,78.64
2023-02-22T12:30:39.459Z,79.53
2023-02-22T12:33:51.483Z,79.77
2023-02-22T12:37:01.025Z,79.64
2023-02-22T12:40:09.079Z,80.24
2023-02-22T12:43:17.565Z,81.03
2023-02-22T12:46:25.267Z,79.83
2023-02-22T12:49:35.839Z,79.71
2023-02-22T12:52:45.149Z,80.12
2023-02-22T12:55:52.208Z,80.70
2023-02-22T12:59:02.925Z,79.42
2023-02-22T13:02:16.774Z,79.51
2023-02-22T13:05:20.780Z,79.65
2023-02-22T13:08:33.150Z,80.23
2023-02-22T13:11:43.355Z,79.23
2023-02-22T13:14:59.930Z,78.81
2023-02-22T13:18:11.565Z,80.08
2023-02-22T13:21:19.979Z,80.18
2023-02-22T13:24:30.354Z,80.14
2023-02-22T13:27:39.615Z,81.78
2023-02-22T13:30:49.876Z,81.77
2023-02-22T13:34:07.240Z,79.91
2023-02-22T13:37:35.854Z,80.36
2023-02-22T13:40:56.249Z,80.92
2023-02-22T13:44:37.456Z,80.85
2023-02-22T13:48:03.703Z,79.77
2023-02-22T13:51:12.121Z,80.03
2023-02-22T13:54:21.468Z,81.35
2023-02-22T13:57:27.058Z,82.62
2023-02-22T14:00:46.332Z,83.57
2023-02-22T14:03:50.168Z,82.88
2023-02-22T14:06:52.752Z,82.71
2023-02-22T14:09:56.423Z,82.80
2023-02-22T14:13:05.705Z,82.89
2023-02-22T14:16:24.227Z,82.40
2023-02-22T14:19:28.198Z,81.87
2023-02-22T14:22:31.257Z,81.76
2023-02-22T14:25:38.622Z,81.46
2023-02-22T14:28:52.550Z,82.04
2023-02-22T14:32:07.502Z,81.12
2023-02-22T14:35:28.710Z,82.17
2023-02-22T14:38:35.982Z,82.64
2023-02-22T14:41:41.215Z,82.88
2023-02-22T14:44:53.357Z,83.49
2023-02-22T14:48:04.066Z,83.19
2023-02-22T14:51:21.784Z,83.51
2023-02-22T14:54:31.687Z,84.45
2023-02-22T14:57:44.447Z,84.89
2023-02-22T15:00:48.914Z,84.04
2023-02-22T15:04:07.243Z,86.19
2023-02-22T15:07:28.171Z,85.30
2023-02-22T15:10:32.393Z,85.44
2023-02-22T15:13:35.033Z,85.83
2023-02-22T15:16:39.593Z,87.23
2023-02-22T15:19:43.247Z,88.26
2023-02-22T15:22:49.007Z,88.20
2023-02-22T15:25:51.774Z,89.43
2023-02-22T15:28:56.046Z,90.54
2023-02-22T15:31:58.549Z,89.70
2023-02-22T15:35:13.941Z,90.77
2023-02-22T15:38:21.995Z,90.60
2023-02-22T15:41:30.366Z,91.24
2023-02-22T15:44:36.930Z,92.44
2023-02-22T15:47:40.110Z,92.52
2023-02-22T15:51:00.409Z,92.69
2023-02-22T15:54:13.308Z,92.94
2023-02-22T15:57:27.397Z,94.23
2023-02-22T16:00:36.891Z,94.79
2023-02-22T16:03:44.990Z,94.55
2023-02-22T16:06:48.604Z,95.40
2023-02-22T16:09:53.264Z,95.17
2023-02-22T16:13:16.643Z,95.68
2023-02-22T16:16:31.035Z,95.20
2023-02-22T16:19:40.732Z,95.26
2023-02-22T16:22:49.194Z,95.43
2023-02-22T16:26:11.494Z,96.02
2023-02-22T16:29:26.705Z,95.43
2023-02-22T16:32:30.661Z,96.90
2023-02-22T16:35:35.482Z,97.74
